Time;durP1;ratioP1;P1;durP2;ratioP2;P2;SDS_P1;SDS_P2;PMS_P1;PMS_P2;Temp;Humidity;BMP_temperature;BMP_pressure;BME280_temperature;BME280_humidity;BME280_pressure;Samples;Min_cycle;Max_cycle;Signal;HPM_P1;HPM_P2
2022/01/05 00:00:10;;;;;;;;;;;10.60;99.90;;;;;;5021591;28;19952;-71
2022/01/05 00:02:36;;;;;;;;;;;10.70;99.90;;;;;;5013109;28;20055;-70
2022/01/05 00:05:15;;;;;;;;;;;10.70;99.90;;;;;;5026604;28;19951;-74
2022/01/05 00:07:40;;;;;;;;;;;10.60;99.90;;;;;;5012885;28;19936;-70
2022/01/05 00:10:07;;;;;;;;;;;10.80;99.90;;;;;;5012994;28;19910;-72
2022/01/05 00:12:33;;;;;;;;;;;10.70;99.90;;;;;;5000768;28;19917;-72
2022/01/05 00:14:58;;;;;;;;;;;10.70;99.90;;;;;;5005062;28;19913;-70
2022/01/05 00:17:24;;;;;;;;;;;10.70;99.90;;;;;;5009130;28;19917;-70
2022/01/05 00:19:49;;;;;;;;;;;10.70;99.90;;;;;;5007100;28;19913;-70
2022/01/05 00:22:15;;;;;;;;;;;10.70;99.90;;;;;;5004237;28;19913;-70
2022/01/05 00:24:41;;;;;;;;;;;10.80;99.90;;;;;;5009188;28;20291;-71
2022/01/05 00:27:07;;;;;;;;;;;10.80;99.90;;;;;;5009604;28;19913;-72
2022/01/05 00:29:32;;;;;;;;;;;10.80;99.90;;;;;;5003607;28;20291;-70
2022/01/05 00:31:58;;;;;;;;;;;10.80;99.90;;;;;;5009806;28;19914;-72
2022/01/05 00:34:23;;;;;;;;;;;10.80;99.90;;;;;;5009631;28;19985;-71
2022/01/05 00:36:49;;;;;;;;;;;10.80;99.90;;;;;;5008503;28;19976;-70
2022/01/05 00:39:14;;;;;;;;;;;10.90;99.90;;;;;;5010114;28;19992;-71
2022/01/05 00:41:40;;;;;;;;;;;10.90;99.90;;;;;;5005423;28;20279;-70
2022/01/05 00:44:06;;;;;;;;;;;10.90;99.90;;;;;;5009679;28;19913;-71
2022/01/05 00:46:31;;;;;;;;;;;10.90;99.90;;;;;;5009776;28;20028;-70
2022/01/05 00:49:03;;;;;;;;;;;11.00;99.90;;;;;;5003961;28;20504;-72
2022/01/05 00:51:32;;;;;;;;;;;11.00;99.90;;;;;;5021000;28;19987;-70
2022/01/05 00:53:57;;;;;;;;;;;11.10;99.90;;;;;;5015118;28;19953;-71
2022/01/05 00:56:28;;;;;;;;;;;11.10;99.90;;;;;;5013213;28;19914;-72
2022/01/05 00:58:54;;;;;;;;;;;11.10;99.90;;;;;;5010598;28;20371;-71
2022/01/05 01:01:20;;;;;;;;;;;11.20;99.90;;;;;;5011298;28;19961;-70
2022/01/05 01:03:46;;;;;;;;;;;11.20;99.90;;;;;;5013344;28;20364;-72
2022/01/05 01:06:12;;;;;;;;;;;11.20;99.90;;;;;;5012857;28;19905;-70
2022/01/05 01:08:37;;;;;;;;;;;11.30;99.90;;;;;;5025519;28;19928;-70
2022/01/05 01:11:03;;;;;;;;;;;11.30;99.90;;;;;;5022735;28;19905;-70
2022/01/05 01:13:28;;;;;;;;;;;11.30;99.90;;;;;;5015277;28;19980;-71
2022/01/05 01:15:54;;;;;;;;;;;11.30;99.90;;;;;;5012510;28;20388;-71
2022/01/05 01:18:20;;;;;;;;;;;11.30;99.90;;;;;;5016627;28;19909;-71
2022/01/05 01:20:47;;;;;;;;;;;11.30;99.90;;;;;;5019730;28;19975;-70
2022/01/05 01:23:13;;;;;;;;;;;11.40;99.90;;;;;;5017208;28;19917;-71
2022/01/05 01:25:39;;;;;;;;;;;11.40;99.90;;;;;;5019358;28;20294;-70
2022/01/05 01:28:06;;;;;;;;;;;11.40;99.90;;;;;;5017931;28;20004;-70
2022/01/05 01:30:32;;;;;;;;;;;11.30;99.90;;;;;;5022195;28;19917;-71
2022/01/05 01:33:01;;;;;;;;;;;11.30;99.90;;;;;;5018399;28;19917;-71
2022/01/05 01:35:26;;;;;;;;;;;11.20;99.90;;;;;;5008815;28;20481;-70
2022/01/05 01:37:55;;;;;;;;;;;11.20;99.90;;;;;;5010852;28;19959;-71
2022/01/05 01:40:21;;;;;;;;;;;11.30;99.90;;;;;;5012054;28;19921;-70
2022/01/05 01:42:47;;;;;;;;;;;11.40;99.90;;;;;;5008808;28;20236;-70
2022/01/05 01:45:13;;;;;;;;;;;11.40;99.90;;;;;;5026921;28;20000;-71
2022/01/05 01:47:39;;;;;;;;;;;11.40;99.90;;;;;;5010833;28;20041;-70
2022/01/05 01:50:05;;;;;;;;;;;11.40;99.90;;;;;;5013224;28;19977;-70
2022/01/05 01:52:31;;;;;;;;;;;11.50;99.90;;;;;;5011555;28;19963;-71
2022/01/05 01:54:56;;;;;;;;;;;11.50;99.90;;;;;;5010633;28;19909;-71
2022/01/05 01:57:22;;;;;;;;;;;11.40;99.90;;;;;;5006555;28;19963;-71
2022/01/05 01:59:48;;;;;;;;;;;11.40;99.90;;;;;;5011427;28;20009;-71
2022/01/05 02:02:17;;;;;;;;;;;11.40;99.90;;;;;;5011241;28;19909;-71
2022/01/05 02:04:43;;;;;;;;;;;11.50;99.90;;;;;;5008963;28;20344;-70
2022/01/05 02:07:09;;;;;;;;;;;11.50;99.90;;;;;;5008317;28;19944;-71
2022/01/05 02:09:35;;;;;;;;;;;11.50;99.90;;;;;;5010959;28;19925;-71
2022/01/05 02:12:00;;;;;;;;;;;11.60;99.90;;;;;;5009842;28;19913;-70
2022/01/05 02:14:26;;;;;;;;;;;11.50;99.90;;;;;;5009873;28;19913;-70
2022/01/05 02:16:52;;;;;;;;;;;11.50;99.90;;;;;;5011531;28;19928;-70
2022/01/05 02:19:18;;;;;;;;;;;11.50;99.90;;;;;;5002566;28;19909;-72
2022/01/05 02:21:43;;;;;;;;;;;11.50;99.90;;;;;;5010835;28;19937;-70
2022/01/05 02:24:09;;;;;;;;;;;11.50;99.90;;;;;;5012268;28;19910;-71
2022/01/05 02:26:36;;;;;;;;;;;11.50;99.90;;;;;;5013762;28;19921;-70
2022/01/05 02:29:02;;;;;;;;;;;11.50;99.90;;;;;;5011689;28;19943;-71
2022/01/05 02:31:28;;;;;;;;;;;11.50;99.90;;;;;;5007819;28;19913;-70
2022/01/05 02:33:53;;;;;;;;;;;11.40;99.90;;;;;;5006121;28;19917;-71
2022/01/05 02:36:20;;;;;;;;;;;11.40;99.90;;;;;;5015174;28;20370;-71
2022/01/05 02:38:50;;;;;;;;;;;11.40;99.90;;;;;;5025975;28;19909;-71
2022/01/05 02:41:15;;;;;;;;;;;11.40;99.90;;;;;;5020151;28;19914;-71
2022/01/05 02:43:41;;;;;;;;;;;11.40;99.90;;;;;;5022594;28;19935;-71
2022/01/05 02:46:25;;;;;;;;;;;11.50;99.90;;;;;;5021247;28;19905;-71
2022/01/05 02:48:52;;;;;;;;;;;11.50;99.90;;;;;;5013588;28;20383;-70
2022/01/05 02:51:18;;;;;;;;;;;11.50;99.90;;;;;;5016883;28;19913;-70
2022/01/05 02:53:43;;;;;;;;;;;11.40;99.90;;;;;;5022802;28;19925;-71
2022/01/05 02:56:09;;;;;;;;;;;11.40;99.90;;;;;;5017804;28;19918;-70
2022/01/05 02:58:35;;;;;;;;;;;11.40;99.90;;;;;;5016138;28;19913;-70
2022/01/05 03:01:00;;;;;;;;;;;11.40;99.90;;;;;;5014719;28;20093;-71
2022/01/05 03:03:26;;;;;;;;;;;11.50;99.90;;;;;;5010591;28;19913;-71
2022/01/05 03:05:52;;;;;;;;;;;11.60;99.90;;;;;;5014464;28;20417;-72
2022/01/05 03:08:18;;;;;;;;;;;11.60;99.90;;;;;;5008786;28;20817;-71
2022/01/05 03:10:43;;;;;;;;;;;11.70;99.90;;;;;;5005749;28;19910;-72
2022/01/05 03:13:09;;;;;;;;;;;11.70;99.90;;;;;;5009815;28;19917;-71
2022/01/05 03:15:35;;;;;;;;;;;11.80;99.90;;;;;;5015320;28;19928;-71
2022/01/05 03:18:04;;;;;;;;;;;11.70;99.90;;;;;;5016966;28;19917;-70
2022/01/05 03:20:30;;;;;;;;;;;11.90;99.90;;;;;;5007568;28;19940;-71
2022/01/05 03:22:56;;;;;;;;;;;11.90;99.90;;;;;;5011624;28;19909;-71
2022/01/05 03:25:22;;;;;;;;;;;11.90;99.90;;;;;;5011134;28;20371;-71
2022/01/05 03:27:48;;;;;;;;;;;11.90;99.90;;;;;;5008614;28;19916;-71
2022/01/05 03:30:16;;;;;;;;;;;11.90;99.90;;;;;;5010686;28;19988;-71
2022/01/05 03:35:16;;;;;;;;;;;12.00;99.90;;;;;;5011946;28;19909;-72
2022/01/05 03:37:41;;;;;;;;;;;12.00;99.90;;;;;;5004008;28;19915;-71
2022/01/05 03:40:07;;;;;;;;;;;12.00;99.90;;;;;;5011670;28;19968;-71
2022/01/05 03:42:33;;;;;;;;;;;12.00;99.90;;;;;;5009871;28;21672;-70
2022/01/05 03:44:58;;;;;;;;;;;11.90;99.90;;;;;;5010863;28;20248;-70
2022/01/05 03:47:24;;;;;;;;;;;12.00;99.90;;;;;;5009572;28;20009;-71
2022/01/05 03:49:49;;;;;;;;;;;12.00;99.90;;;;;;5012125;28;20008;-70
2022/01/05 03:52:15;;;;;;;;;;;12.10;99.90;;;;;;5012455;28;20410;-70
2022/01/05 03:54:41;;;;;;;;;;;12.10;99.90;;;;;;5009928;28;19996;-71
2022/01/05 03:57:06;;;;;;;;;;;12.10;99.90;;;;;;5010964;28;19910;-71
2022/01/05 03:59:32;;;;;;;;;;;12.20;99.90;;;;;;5009821;28;19955;-70
2022/01/05 04:01:57;;;;;;;;;;;12.20;99.90;;;;;;5008314;28;19909;-71
2022/01/05 04:04:23;;;;;;;;;;;12.10;99.90;;;;;;5010550;28;19955;-70
2022/01/05 04:06:48;;;;;;;;;;;12.10;99.90;;;;;;5012388;28;19916;-71
2022/01/05 04:09:14;;;;;;;;;;;12.20;99.90;;;;;;5007938;28;19932;-70
2022/01/05 04:11:39;;;;;;;;;;;12.10;99.90;;;;;;5010376;28;19910;-72
2022/01/05 04:14:05;;;;;;;;;;;12.10;99.90;;;;;;5007069;28;19996;-71
2022/01/05 04:16:31;;;;;;;;;;;12.00;99.90;;;;;;5007788;28;20322;-69
2022/01/05 04:18:57;;;;;;;;;;;12.10;99.90;;;;;;5008758;28;19910;-70
2022/01/05 04:21:22;;;;;;;;;;;12.00;99.90;;;;;;5009176;28;19960;-71
2022/01/05 04:23:48;;;;;;;;;;;12.00;99.90;;;;;;5007264;28;19987;-72
2022/01/05 04:26:14;;;;;;;;;;;12.00;99.90;;;;;;5008172;28;19909;-71
2022/01/05 04:28:40;;;;;;;;;;;12.00;99.90;;;;;;5009497;28;19917;-71
2022/01/05 04:31:06;;;;;;;;;;;12.00;99.90;;;;;;5009765;28;19980;-72
2022/01/05 04:33:31;;;;;;;;;;;12.10;99.90;;;;;;5010519;28;19909;-71
2022/01/05 04:35:57;;;;;;;;;;;12.00;99.90;;;;;;5010495;28;19916;-72
2022/01/05 04:38:23;;;;;;;;;;;12.00;99.90;;;;;;5007284;28;19952;-70
2022/01/05 04:40:48;;;;;;;;;;;12.20;99.90;;;;;;5009989;28;19917;-70
2022/01/05 04:43:14;;;;;;;;;;;12.40;99.90;;;;;;5005286;28;19916;-71
2022/01/05 04:45:39;;;;;;;;;;;12.50;99.90;;;;;;5009525;28;20007;-71
2022/01/05 04:48:05;;;;;;;;;;;12.40;99.90;;;;;;5006681;28;19909;-71
2022/01/05 04:50:30;;;;;;;;;;;12.50;99.90;;;;;;5009084;28;19932;-71
2022/01/05 04:52:56;;;;;;;;;;;12.50;99.90;;;;;;5008414;28;20367;-69
2022/01/05 04:55:22;;;;;;;;;;;12.60;99.90;;;;;;5006456;28;19940;-71
2022/01/05 04:57:47;;;;;;;;;;;12.60;99.90;;;;;;5004276;28;19916;-71
2022/01/05 05:00:13;;;;;;;;;;;12.70;99.90;;;;;;5008408;28;19921;-70
2022/01/05 05:02:38;;;;;;;;;;;12.60;99.90;;;;;;5007958;28;19964;-71
2022/01/05 05:05:04;;;;;;;;;;;12.60;99.90;;;;;;5008744;28;20608;-72
2022/01/05 05:07:30;;;;;;;;;;;12.60;99.90;;;;;;5010147;28;19906;-71
2022/01/05 05:09:55;;;;;;;;;;;12.60;99.90;;;;;;5008062;28;19913;-70
2022/01/05 05:12:21;;;;;;;;;;;12.60;99.90;;;;;;5005493;28;19917;-72
2022/01/05 05:14:46;;;;;;;;;;;12.60;99.90;;;;;;5007979;28;20008;-72
2022/01/05 05:17:12;;;;;;;;;;;12.60;99.90;;;;;;5008676;28;19920;-72
2022/01/05 05:19:37;;;;;;;;;;;12.60;99.90;;;;;;5008397;28;20407;-71
2022/01/05 05:22:03;;;;;;;;;;;12.60;99.90;;;;;;5008916;28;19967;-72
2022/01/05 05:24:29;;;;;;;;;;;12.60;99.90;;;;;;5008156;28;19956;-70
2022/01/05 05:26:54;;;;;;;;;;;12.60;99.90;;;;;;5009446;28;19909;-71
2022/01/05 05:29:20;;;;;;;;;;;12.60;99.90;;;;;;5008133;28;20035;-70
2022/01/05 05:31:45;;;;;;;;;;;12.60;99.90;;;;;;5010480;28;19909;-73
2022/01/05 05:34:11;;;;;;;;;;;12.60;99.90;;;;;;5006530;28;19909;-70
2022/01/05 05:36:37;;;;;;;;;;;12.70;99.90;;;;;;5007909;28;20251;-70
2022/01/05 05:39:02;;;;;;;;;;;12.70;99.90;;;;;;5008574;28;19949;-70
2022/01/05 05:41:28;;;;;;;;;;;12.70;99.90;;;;;;5007864;28;19920;-70
2022/01/05 05:43:53;;;;;;;;;;;12.70;99.90;;;;;;5009258;28;19917;-70
2022/01/05 05:46:19;;;;;;;;;;;12.70;99.90;;;;;;5010538;28;19913;-69
2022/01/05 05:48:45;;;;;;;;;;;12.90;99.90;;;;;;5007372;28;19909;-69
2022/01/05 05:51:11;;;;;;;;;;;12.90;99.90;;;;;;5010832;28;19913;-72
2022/01/05 05:53:36;;;;;;;;;;;12.90;99.90;;;;;;5007342;28;19918;-70
2022/01/05 05:56:02;;;;;;;;;;;12.90;99.90;;;;;;5009364;28;19905;-70
2022/01/05 05:58:28;;;;;;;;;;;12.90;99.90;;;;;;5006568;28;19909;-70
2022/01/05 06:00:53;;;;;;;;;;;12.90;99.90;;;;;;5008623;28;19921;-71
2022/01/05 06:03:19;;;;;;;;;;;12.90;99.90;;;;;;5008232;28;19914;-72
2022/01/05 06:05:44;;;;;;;;;;;13.00;99.90;;;;;;5005255;28;19948;-72
2022/01/05 06:08:10;;;;;;;;;;;13.00;99.90;;;;;;5005121;28;19963;-69
2022/01/05 06:10:36;;;;;;;;;;;13.00;99.90;;;;;;5009134;28;20413;-72
2022/01/05 06:13:01;;;;;;;;;;;13.00;99.90;;;;;;5010474;28;19910;-71
2022/01/05 06:15:27;;;;;;;;;;;13.00;99.90;;;;;;5013190;28;19929;-71
2022/01/05 06:17:52;;;;;;;;;;;13.00;99.90;;;;;;5011188;28;20000;-71
2022/01/05 06:20:18;;;;;;;;;;;13.00;99.90;;;;;;5012228;28;19948;-70
2022/01/05 06:22:43;;;;;;;;;;;13.10;99.90;;;;;;5009722;28;20008;-71
2022/01/05 06:25:12;;;;;;;;;;;13.10;99.90;;;;;;5010569;28;19917;-70
2022/01/05 06:27:38;;;;;;;;;;;13.30;99.90;;;;;;5012362;28;19909;-71
2022/01/05 06:30:06;;;;;;;;;;;13.30;99.90;;;;;;5009646;28;19943;-71
2022/01/05 06:32:33;;;;;;;;;;;13.20;99.90;;;;;;5008582;28;19979;-71
2022/01/05 06:35:00;;;;;;;;;;;13.20;99.90;;;;;;5013054;28;19916;-71
2022/01/05 06:37:25;;;;;;;;;;;13.20;99.90;;;;;;5010868;28;19916;-71
2022/01/05 06:39:51;;;;;;;;;;;13.30;99.90;;;;;;5011480;28;19997;-72
2022/01/05 06:42:16;;;;;;;;;;;13.30;99.90;;;;;;5006699;28;19967;-71
2022/01/05 06:44:42;;;;;;;;;;;13.30;99.90;;;;;;5010582;28;19917;-69
2022/01/05 06:47:08;;;;;;;;;;;13.30;99.90;;;;;;5001184;28;20008;-70
2022/01/05 06:49:33;;;;;;;;;;;13.30;99.90;;;;;;4994509;28;19938;-70
2022/01/05 06:51:59;;;;;;;;;;;13.30;99.90;;;;;;4993321;28;19916;-70
2022/01/05 06:54:24;;;;;;;;;;;13.30;99.90;;;;;;5008458;28;20426;-69
2022/01/05 06:56:50;;;;;;;;;;;13.30;99.90;;;;;;5004040;28;20029;-72
2022/01/05 06:59:16;;;;;;;;;;;13.30;99.90;;;;;;4993948;28;19913;-70
2022/01/05 07:01:41;;;;;;;;;;;13.20;99.90;;;;;;5013539;28;20357;-71
2022/01/05 07:04:07;;;;;;;;;;;13.20;99.90;;;;;;5007973;28;19916;-70
2022/01/05 07:06:32;;;;;;;;;;;13.30;99.90;;;;;;5012167;28;19917;-71
2022/01/05 07:08:58;;;;;;;;;;;13.30;99.90;;;;;;5011343;28;19909;-70
2022/01/05 07:11:26;;;;;;;;;;;13.30;99.90;;;;;;5013033;28;19951;-71
2022/01/05 07:13:52;;;;;;;;;;;13.30;99.90;;;;;;5011499;28;20000;-70
2022/01/05 07:16:17;;;;;;;;;;;13.40;99.90;;;;;;5010604;28;20047;-70
2022/01/05 07:18:43;;;;;;;;;;;13.40;99.90;;;;;;5008029;28;19909;-70
2022/01/05 07:21:08;;;;;;;;;;;13.40;99.90;;;;;;5012283;28;19910;-70
2022/01/05 07:23:34;;;;;;;;;;;13.50;99.90;;;;;;5008115;28;20350;-70
2022/01/05 07:25:59;;;;;;;;;;;13.50;99.90;;;;;;5012840;28;19988;-71
2022/01/05 07:28:25;;;;;;;;;;;13.50;99.90;;;;;;5003878;28;19917;-70
2022/01/05 07:30:54;;;;;;;;;;;13.50;99.90;;;;;;5012155;28;20023;-70
2022/01/05 07:33:19;;;;;;;;;;;13.50;99.90;;;;;;5009273;28;20271;-71
2022/01/05 07:35:45;;;;;;;;;;;13.40;99.90;;;;;;5012350;28;19909;-71
2022/01/05 07:38:10;;;;;;;;;;;13.50;99.90;;;;;;5009734;28;20338;-72
2022/01/05 07:40:36;;;;;;;;;;;13.50;99.90;;;;;;5012433;28;19963;-71
2022/01/05 07:43:05;;;;;;;;;;;13.50;99.90;;;;;;5004288;28;19916;-71
2022/01/05 07:45:30;;;;;;;;;;;13.60;99.90;;;;;;4993025;28;20279;-70
2022/01/05 07:47:56;;;;;;;;;;;13.50;99.90;;;;;;5004327;28;19916;-72
2022/01/05 07:50:21;;;;;;;;;;;13.50;99.90;;;;;;5007816;28;19917;-70
2022/01/05 07:52:47;;;;;;;;;;;13.60;99.90;;;;;;5011309;28;19995;-70
2022/01/05 07:55:13;;;;;;;;;;;13.60;99.90;;;;;;5012925;28;19934;-71
2022/01/05 07:57:38;;;;;;;;;;;13.60;99.90;;;;;;5011010;28;19928;-71
2022/01/05 08:00:08;;;;;;;;;;;13.60;99.90;;;;;;5012451;28;19921;-70
2022/01/05 08:02:33;;;;;;;;;;;13.60;99.90;;;;;;5009121;28;19909;-71
2022/01/05 08:04:59;;;;;;;;;;;13.60;99.90;;;;;;5010050;28;19909;-70
2022/01/05 08:07:24;;;;;;;;;;;13.70;99.90;;;;;;5010677;28;19913;-70
2022/01/05 08:09:50;;;;;;;;;;;13.70;99.90;;;;;;5010119;28;20303;-71
2022/01/05 08:12:15;;;;;;;;;;;13.70;99.90;;;;;;5013006;28;20015;-71
2022/01/05 08:14:41;;;;;;;;;;;13.70;99.90;;;;;;5010359;28;19964;-71
2022/01/05 08:17:07;;;;;;;;;;;13.70;99.90;;;;;;5010424;28;20063;-69
2022/01/05 08:19:32;;;;;;;;;;;13.70;99.90;;;;;;5004460;28;19920;-69
2022/01/05 08:21:58;;;;;;;;;;;13.80;99.90;;;;;;5013362;28;20255;-71
2022/01/05 08:24:23;;;;;;;;;;;13.90;99.90;;;;;;5010285;28;20041;-70
2022/01/05 08:26:49;;;;;;;;;;;13.90;99.90;;;;;;5002334;28;19952;-70
2022/01/05 08:29:14;;;;;;;;;;;13.90;99.90;;;;;;5005421;28;19941;-72
2022/01/05 08:31:40;;;;;;;;;;;13.90;99.90;;;;;;5011892;28;20370;-71
2022/01/05 08:34:06;;;;;;;;;;;13.90;99.90;;;;;;5001216;28;19910;-69
2022/01/05 08:36:31;;;;;;;;;;;13.90;99.90;;;;;;5007178;28;19909;-68
2022/01/05 08:39:08;;;;;;;;;;;14.00;99.90;;;;;;5007775;28;19917;-71
2022/01/05 08:41:36;;;;;;;;;;;14.00;99.90;;;;;;5008805;28;21562;-71
2022/01/05 08:44:01;;;;;;;;;;;14.00;99.90;;;;;;5003241;28;20421;-70
2022/01/05 08:46:27;;;;;;;;;;;14.10;99.90;;;;;;5008667;28;19996;-71
2022/01/05 08:48:53;;;;;;;;;;;14.00;99.90;;;;;;5008847;28;19920;-70
2022/01/05 08:51:18;;;;;;;;;;;14.00;99.90;;;;;;5015823;28;19971;-70
2022/01/05 08:53:44;;;;;;;;;;;14.00;99.90;;;;;;5010859;28;19909;-71
2022/01/05 08:56:10;;;;;;;;;;;14.10;99.90;;;;;;5009721;28;19916;-70
2022/01/05 08:58:35;;;;;;;;;;;14.10;99.90;;;;;;5001546;28;19924;-70
2022/01/05 09:01:01;;;;;;;;;;;14.10;99.90;;;;;;5008220;28;19924;-70
2022/01/05 09:03:27;;;;;;;;;;;14.10;99.90;;;;;;5001812;28;19985;-71
2022/01/05 09:05:52;;;;;;;;;;;14.10;99.90;;;;;;5008866;28;20059;-71
2022/01/05 09:08:18;;;;;;;;;;;14.10;99.90;;;;;;5006797;28;19913;-71
2022/01/05 09:10:43;;;;;;;;;;;14.20;99.90;;;;;;5007963;28;20362;-70
2022/01/05 09:13:09;;;;;;;;;;;14.20;99.90;;;;;;5010321;28;19917;-72
2022/01/05 09:15:40;;;;;;;;;;;14.20;99.90;;;;;;5009147;28;19917;-72
2022/01/05 09:18:05;;;;;;;;;;;14.30;99.90;;;;;;5004783;28;19956;-71
2022/01/05 09:20:32;;;;;;;;;;;14.30;99.90;;;;;;5006830;28;19917;-70
2022/01/05 09:22:58;;;;;;;;;;;14.30;99.90;;;;;;5005012;28;19940;-72
2022/01/05 09:25:24;;;;;;;;;;;14.30;99.90;;;;;;5001136;28;20428;-72
2022/01/05 09:27:51;;;;;;;;;;;14.30;99.90;;;;;;5006347;28;19909;-71
2022/01/05 09:30:17;;;;;;;;;;;14.40;99.90;;;;;;4999423;28;20375;-72
2022/01/05 09:32:43;;;;;;;;;;;14.40;99.90;;;;;;5005834;28;19909;-72
2022/01/05 09:35:12;;;;;;;;;;;14.30;99.90;;;;;;5008948;28;19909;-71
2022/01/05 09:37:50;;;;;;;;;;;14.30;99.90;;;;;;5009994;28;19983;-70
2022/01/05 09:43:02;;;;;;;;;;;14.40;99.90;;;;;;5010481;28;19963;-67
2022/01/05 09:45:28;;;;;;;;;;;14.30;99.90;;;;;;5010420;28;19924;-66
2022/01/05 09:48:02;;;;;;;;;;;14.30;99.90;;;;;;5006579;28;19957;-64
2022/01/05 09:50:29;;;;;;;;;;;14.30;99.90;;;;;;4991299;28;20449;-65
2022/01/05 09:52:55;;;;;;;;;;;14.30;99.90;;;;;;5004291;28;20319;-67
2022/01/05 09:55:21;;;;;;;;;;;14.40;99.90;;;;;;5009151;28;19920;-67
2022/01/05 09:57:47;;;;;;;;;;;14.40;99.90;;;;;;5003272;28;19914;-67
2022/01/05 10:00:14;;;;;;;;;;;14.50;99.90;;;;;;5008850;28;20375;-66
2022/01/05 10:02:40;;;;;;;;;;;14.40;99.90;;;;;;5010403;28;20287;-68
2022/01/05 10:05:10;;;;;;;;;;;14.40;99.90;;;;;;4999089;28;19909;-68
2022/01/05 10:07:36;;;;;;;;;;;14.40;99.90;;;;;;5011389;28;19909;-69
2022/01/05 10:10:02;;;;;;;;;;;14.40;99.90;;;;;;4993278;28;20261;-68
2022/01/05 10:12:27;;;;;;;;;;;14.40;99.90;;;;;;4995671;28;19914;-69
2022/01/05 10:15:00;;;;;;;;;;;14.40;99.90;;;;;;5001631;28;20421;-67
2022/01/05 10:17:30;;;;;;;;;;;14.40;99.90;;;;;;5024954;28;19910;-70
2022/01/05 10:19:57;;;;;;;;;;;14.40;99.90;;;;;;4990524;28;20320;-67
2022/01/05 10:22:27;;;;;;;;;;;14.40;99.90;;;;;;5010660;28;20541;-67
2022/01/05 10:24:56;;;;;;;;;;;14.40;99.90;;;;;;4996459;28;20379;-64
2022/01/05 10:27:23;;;;;;;;;;;14.40;99.90;;;;;;4991103;28;20009;-66
2022/01/05 10:29:51;;;;;;;;;;;14.50;99.90;;;;;;5001153;28;20291;-66
2022/01/05 10:32:18;;;;;;;;;;;14.50;99.90;;;;;;4993181;28;20399;-65
2022/01/05 10:34:43;;;;;;;;;;;14.50;99.90;;;;;;4991344;28;19996;-66
2022/01/05 10:37:10;;;;;;;;;;;14.50;99.90;;;;;;4990785;28;20049;-67
2022/01/05 10:39:38;;;;;;;;;;;14.50;99.90;;;;;;5007549;28;19991;-66
2022/01/05 10:42:04;;;;;;;;;;;14.60;99.90;;;;;;5004850;28;20383;-66
2022/01/05 10:44:30;;;;;;;;;;;14.70;99.90;;;;;;5005014;28;19917;-67
2022/01/05 10:46:59;;;;;;;;;;;14.60;99.90;;;;;;5008167;28;20298;-67
2022/01/05 10:49:27;;;;;;;;;;;14.60;99.90;;;;;;4994809;28;20360;-65
2022/01/05 10:51:53;;;;;;;;;;;14.50;99.90;;;;;;4999214;28;19909;-65
2022/01/05 10:54:20;;;;;;;;;;;14.60;99.90;;;;;;5009884;28;19917;-66
2022/01/05 10:56:46;;;;;;;;;;;14.60;99.90;;;;;;5012119;28;19905;-68
2022/01/05 10:59:15;;;;;;;;;;;14.60;99.90;;;;;;5009774;28;19917;-66
2022/01/05 11:01:41;;;;;;;;;;;14.50;99.90;;;;;;5013955;28;19948;-66
2022/01/05 11:04:17;;;;;;;;;;;14.60;99.90;;;;;;5011651;28;19996;-66
2022/01/05 11:06:56;;;;;;;;;;;14.60;99.90;;;;;;5012435;28;19909;-66
2022/01/05 11:09:22;;;;;;;;;;;14.60;99.90;;;;;;5010086;28;19936;-67
2022/01/05 11:11:49;;;;;;;;;;;14.60;99.90;;;;;;5011878;28;19983;-67
2022/01/05 11:14:20;;;;;;;;;;;14.50;99.90;;;;;;5011310;28;19913;-68
2022/01/05 11:16:47;;;;;;;;;;;14.60;99.90;;;;;;5012635;28;19977;-68
2022/01/05 11:19:17;;;;;;;;;;;14.50;99.90;;;;;;5005268;28;19910;-68
2022/01/05 11:21:54;;;;;;;;;;;14.60;99.90;;;;;;4997777;28;20405;-67
2022/01/05 11:24:20;;;;;;;;;;;14.50;99.90;;;;;;5003709;28;20280;-67
2022/01/05 11:26:46;;;;;;;;;;;14.50;99.90;;;;;;4992693;28;19917;-68
2022/01/05 11:29:12;;;;;;;;;;;14.50;99.90;;;;;;5003679;28;19914;-68
2022/01/05 11:31:38;;;;;;;;;;;14.50;99.90;;;;;;5012008;28;19910;-69
2022/01/05 11:34:04;;;;;;;;;;;14.50;99.90;;;;;;5011550;28;19917;-66
2022/01/05 11:36:29;;;;;;;;;;;14.50;99.90;;;;;;5010999;28;19956;-68
2022/01/05 11:38:55;;;;;;;;;;;14.60;99.90;;;;;;5012702;28;19921;-70
2022/01/05 11:41:21;;;;;;;;;;;14.60;99.90;;;;;;5010540;28;19928;-67
2022/01/05 11:43:47;;;;;;;;;;;14.60;99.90;;;;;;5003821;28;19910;-67
2022/01/05 11:46:13;;;;;;;;;;;14.60;99.90;;;;;;5000646;28;19919;-67
2022/01/05 11:48:40;;;;;;;;;;;14.60;99.90;;;;;;5007072;28;19909;-67
2022/01/05 11:51:06;;;;;;;;;;;14.70;99.90;;;;;;5010549;28;19919;-67
2022/01/05 11:53:39;;;;;;;;;;;14.60;99.90;;;;;;5006756;28;19944;-67
2022/01/05 11:56:07;;;;;;;;;;;14.60;99.90;;;;;;5004493;28;20255;-68
2022/01/05 11:58:34;;;;;;;;;;;14.60;99.90;;;;;;5005943;28;19909;-68
2022/01/05 12:01:12;;;;;;;;;;;14.60;99.90;;;;;;5011874;28;19916;-68
2022/01/05 12:03:49;;;;;;;;;;;14.60;99.90;;;;;;5011317;28;19956;-68
2022/01/05 12:06:15;;;;;;;;;;;14.60;99.90;;;;;;5009392;28;19937;-68
2022/01/05 12:08:42;;;;;;;;;;;14.70;99.90;;;;;;5007316;28;20007;-68
2022/01/05 12:11:28;;;;;;;;;;;14.70;99.90;;;;;;4992997;28;19909;-68
2022/01/05 12:13:54;;;;;;;;;;;14.70;99.90;;;;;;5002996;28;20402;-67
2022/01/05 12:16:19;;;;;;;;;;;14.70;99.90;;;;;;5011011;28;19905;-67
2022/01/05 12:19:01;;;;;;;;;;;14.80;99.90;;;;;;5009546;28;19909;-67
2022/01/05 12:21:46;;;;;;;;;;;14.80;99.90;;;;;;5010697;28;19961;-68
2022/01/05 12:24:12;;;;;;;;;;;14.80;99.90;;;;;;5012560;28;19909;-68
2022/01/05 12:26:38;;;;;;;;;;;14.70;99.90;;;;;;5011414;28;19906;-68
2022/01/05 12:29:04;;;;;;;;;;;14.80;99.90;;;;;;5003768;28;19917;-66
2022/01/05 12:31:48;;;;;;;;;;;14.70;99.90;;;;;;5008570;28;20004;-68
2022/01/05 12:34:15;;;;;;;;;;;14.70;99.90;;;;;;5016729;28;20347;-67
2022/01/05 12:36:42;;;;;;;;;;;14.70;99.90;;;;;;5012587;28;20154;-68
2022/01/05 12:39:07;;;;;;;;;;;14.70;99.90;;;;;;5015577;28;19909;-67
2022/01/05 12:41:33;;;;;;;;;;;14.80;99.90;;;;;;5013670;28;19913;-67
2022/01/05 12:44:00;;;;;;;;;;;14.80;99.90;;;;;;4995285;28;20276;-71
2022/01/05 12:46:33;;;;;;;;;;;14.70;99.90;;;;;;5007392;28;19936;-68
2022/01/05 12:49:00;;;;;;;;;;;14.70;99.90;;;;;;5006658;28;19910;-67
2022/01/05 12:51:33;;;;;;;;;;;14.70;99.90;;;;;;5012481;28;19905;-67
2022/01/05 12:54:01;;;;;;;;;;;14.60;99.90;;;;;;5000140;28;19956;-68
2022/01/05 12:56:28;;;;;;;;;;;14.60;99.90;;;;;;5002869;28;20573;-66
2022/01/05 12:58:56;;;;;;;;;;;14.60;99.90;;;;;;5001958;28;19910;-68
2022/01/05 13:01:23;;;;;;;;;;;14.60;99.90;;;;;;5002781;28;20104;-67
2022/01/05 13:03:49;;;;;;;;;;;14.60;99.90;;;;;;5001144;28;20008;-67
2022/01/05 13:06:16;;;;;;;;;;;14.60;99.90;;;;;;4998425;28;19905;-67
2022/01/05 13:08:46;;;;;;;;;;;14.60;99.90;;;;;;5002732;28;19914;-69
2022/01/05 13:11:13;;;;;;;;;;;14.60;99.90;;;;;;5001135;28;19913;-69
2022/01/05 13:13:42;;;;;;;;;;;14.60;99.90;;;;;;5001362;28;19985;-67
2022/01/05 13:16:08;;;;;;;;;;;14.60;99.90;;;;;;5001963;28;19995;-68
2022/01/05 13:18:34;;;;;;;;;;;14.60;99.90;;;;;;5004400;28;19916;-68
2022/01/05 13:20:59;;;;;;;;;;;14.60;99.90;;;;;;5000108;28;20538;-67
2022/01/05 13:23:25;;;;;;;;;;;14.50;99.90;;;;;;5001527;28;19910;-67
2022/01/05 13:25:50;;;;;;;;;;;14.60;99.90;;;;;;5003170;28;19913;-68
2022/01/05 13:28:16;;;;;;;;;;;14.60;99.90;;;;;;4999560;28;20391;-67
2022/01/05 13:30:42;;;;;;;;;;;14.60;99.90;;;;;;4999991;28;19998;-68
2022/01/05 13:33:08;;;;;;;;;;;14.50;99.90;;;;;;4999615;28;19917;-69
2022/01/05 13:35:38;;;;;;;;;;;14.50;99.90;;;;;;5000320;28;19909;-69
2022/01/05 13:38:04;;;;;;;;;;;14.40;99.90;;;;;;5002352;28;19909;-69
2022/01/05 13:40:32;;;;;;;;;;;14.50;99.90;;;;;;5001673;28;20385;-68
2022/01/05 13:43:05;;;;;;;;;;;14.50;99.90;;;;;;4999727;28;19956;-68
2022/01/05 13:45:39;;;;;;;;;;;14.50;99.90;;;;;;5007161;28;19967;-69
2022/01/05 13:48:05;;;;;;;;;;;14.40;99.90;;;;;;5001411;28;20259;-67
2022/01/05 13:50:34;;;;;;;;;;;14.40;99.90;;;;;;5002495;28;20000;-68
2022/01/05 13:53:01;;;;;;;;;;;14.40;99.90;;;;;;5001320;28;19913;-68
2022/01/05 13:55:46;;;;;;;;;;;14.40;99.90;;;;;;5001346;28;19916;-70
2022/01/05 13:58:17;;;;;;;;;;;14.50;99.90;;;;;;5000625;28;20000;-69
2022/01/05 14:00:48;;;;;;;;;;;14.60;99.90;;;;;;5001146;28;19963;-68
2022/01/05 14:03:25;;;;;;;;;;;14.50;99.90;;;;;;5007081;28;19928;-68
2022/01/05 14:05:51;;;;;;;;;;;14.50;99.90;;;;;;5000574;28;19941;-68
2022/01/05 14:08:17;;;;;;;;;;;14.50;99.90;;;;;;4990648;28;19937;-69
2022/01/05 14:10:42;;;;;;;;;;;14.50;99.90;;;;;;5002695;28;20363;-67
2022/01/05 14:13:10;;;;;;;;;;;14.50;99.90;;;;;;5007300;28;19918;-68
2022/01/05 14:15:36;;;;;;;;;;;14.50;99.90;;;;;;4990137;28;19960;-69
2022/01/05 14:18:12;;;;;;;;;;;14.60;99.90;;;;;;4991176;28;19922;-66